createdAt,value
2023-05-08T00:01:00.182Z,6.84
2023-05-08T00:03:28.698Z,6.83
2023-05-08T00:05:57.324Z,6.79
2023-05-08T00:08:26.137Z,6.80
2023-05-08T00:10:55.969Z,6.75
2023-05-08T00:13:24.452Z,6.68
2023-05-08T00:15:53.329Z,6.68
2023-05-08T00:18:21.535Z,6.70
2023-05-08T00:20:50.533Z,6.66
2023-05-08T00:23:19.459Z,6.61
2023-05-08T00:25:47.867Z,6.62
2023-05-08T00:28:17.591Z,6.56
2023-05-08T00:30:45.953Z,6.55
2023-05-08T00:33:16.296Z,6.57
2023-05-08T00:35:45.025Z,6.49
2023-05-08T00:38:13.443Z,6.46
2023-05-08T00:40:43.231Z,6.43
2023-05-08T00:43:13.769Z,6.45
2023-05-08T00:45:43.628Z,6.46
2023-05-08T00:48:12.031Z,6.41
2023-05-08T00:50:40.411Z,6.41
2023-05-08T00:53:08.853Z,6.40
2023-05-08T00:55:37.200Z,6.32
2023-05-08T00:58:05.917Z,6.34
2023-05-08T01:00:34.590Z,6.31
2023-05-08T01:03:05.525Z,6.29
2023-05-08T01:05:34.492Z,6.21
2023-05-08T01:08:02.991Z,6.20
2023-05-08T01:10:40.306Z,6.23
2023-05-08T01:13:16.636Z,6.20
2023-05-08T01:15:49.509Z,6.12
2023-05-08T01:18:23.005Z,6.13
2023-05-08T01:20:58.313Z,6.11
2023-05-08T01:23:56.216Z,6.04
2023-05-08T01:26:53.537Z,6.05
2023-05-08T01:29:55.495Z,6.01
2023-05-08T01:32:28.689Z,6.00
2023-05-08T01:35:06.197Z,5.95
2023-05-08T01:37:51.273Z,5.95
2023-05-08T01:40:27.741Z,5.97
2023-05-08T01:43:09.114Z,5.92
2023-05-08T01:45:41.957Z,5.91
2023-05-08T01:48:14.933Z,5.89
2023-05-08T01:50:48.239Z,5.80
2023-05-08T01:53:23.373Z,5.73
2023-05-08T01:55:55.077Z,5.70
2023-05-08T01:58:25.718Z,5.66
2023-05-08T02:00:57.118Z,5.63
2023-05-08T02:03:28.163Z,5.56
2023-05-08T02:06:00.775Z,5.49
2023-05-08T02:08:30.958Z,5.42
2023-05-08T02:11:02.330Z,5.38
2023-05-08T02:13:32.998Z,5.33
2023-05-08T02:16:03.727Z,5.30
2023-05-08T02:18:33.782Z,5.25
2023-05-08T02:21:05.666Z,5.21
2023-05-08T02:23:36.172Z,5.13
2023-05-08T02:26:10.154Z,5.05
2023-05-08T02:28:39.760Z,5.00
2023-05-08T02:31:09.282Z,4.95
2023-05-08T02:33:42.058Z,4.89
2023-05-08T02:36:12.425Z,4.90
2023-05-08T02:38:42.909Z,4.83
2023-05-08T02:41:15.420Z,4.80
2023-05-08T02:43:44.497Z,4.79
2023-05-08T02:46:17.993Z,4.65
2023-05-08T02:48:57.360Z,4.60
2023-05-08T02:51:32.880Z,4.65
2023-05-08T02:54:11.674Z,4.55
2023-05-08T02:56:46.731Z,4.57
2023-05-08T02:59:21.806Z,4.55
2023-05-08T03:01:54.122Z,4.50
2023-05-08T03:04:31.270Z,4.50
2023-05-08T03:07:00.830Z,4.50
2023-05-08T03:09:38.348Z,4.54
2023-05-08T03:12:13.902Z,4.55
2023-05-08T03:14:46.844Z,4.65
2023-05-08T03:17:17.807Z,4.79
2023-05-08T03:19:53.988Z,4.88
2023-05-08T03:22:27.295Z,5.04
2023-05-08T03:24:57.562Z,5.19
2023-05-08T03:27:26.925Z,5.34
2023-05-08T03:29:56.982Z,5.49
2023-05-08T03:32:28.329Z,5.59
2023-05-08T03:35:00.755Z,5.69
2023-05-08T03:37:34.167Z,5.80
2023-05-08T03:40:04.141Z,5.89
2023-05-08T03:42:33.090Z,5.97
2023-05-08T03:45:04.465Z,6.08
2023-05-08T03:47:33.736Z,6.12
2023-05-08T03:50:05.249Z,6.25
2023-05-08T03:52:34.274Z,6.34
2023-05-08T03:55:02.833Z,6.42
2023-05-08T03:57:37.278Z,6.52
2023-05-08T04:00:13.672Z,6.58
2023-05-08T04:02:49.144Z,6.62
2023-05-08T04:05:26.142Z,6.66
2023-05-08T04:07:58.313Z,6.68
2023-05-08T04:10:32.474Z,6.69
2023-05-08T04:13:06.979Z,6.75
2023-05-08T04:15:40.891Z,6.84
2023-05-08T04:18:11.705Z,6.91
2023-05-08T04:20:44.551Z,7.01
2023-05-08T04:23:17.006Z,7.07
2023-05-08T04:25:46.076Z,7.19
2023-05-08T04:28:14.653Z,7.26
2023-05-08T04:30:44.090Z,7.34
2023-05-08T04:33:13.321Z,7.37
2023-05-08T04:35:43.361Z,7.44
2023-05-08T04:38:11.840Z,7.53
2023-05-08T04:40:41.657Z,7.60
2023-05-08T04:43:10.554Z,7.70
2023-05-08T04:45:38.981Z,7.77
2023-05-08T04:48:08.334Z,7.84
2023-05-08T04:50:36.804Z,7.98
2023-05-08T04:53:07.530Z,8.08
2023-05-08T04:55:36.241Z,8.11
2023-05-08T04:58:04.762Z,8.26
2023-05-08T05:00:33.559Z,8.32
2023-05-08T05:03:02.128Z,8.45
2023-05-08T05:05:31.339Z,8.56
2023-05-08T05:08:00.235Z,8.62
2023-05-08T05:10:30.099Z,8.73
2023-05-08T05:12:58.503Z,8.84
2023-05-08T05:15:26.962Z,8.91
2023-05-08T05:17:55.834Z,9.02
2023-05-08T05:20:24.692Z,9.08
2023-05-08T05:22:53.290Z,9.23
2023-05-08T05:25:31.480Z,9.29
2023-05-08T05:28:01.619Z,9.43
2023-05-08T05:30:30.752Z,9.54
2023-05-08T05:32:59.285Z,9.61
2023-05-08T05:35:28.387Z,9.69
2023-05-08T05:37:56.851Z,9.78
2023-05-08T05:40:26.961Z,9.84
2023-05-08T05:42:55.652Z,9.92
2023-05-08T05:45:25.565Z,10.06
2023-05-08T05:47:54.400Z,10.16
2023-05-08T05:50:23.212Z,10.31
2023-05-08T05:52:51.741Z,10.43
2023-05-08T05:55:21.585Z,10.48
2023-05-08T05:57:50.361Z,10.56
2023-05-08T06:00:19.756Z,10.62
2023-05-08T06:02:50.305Z,10.73
2023-05-08T06:05:19.390Z,10.82
2023-05-08T06:07:47.921Z,10.91
2023-05-08T06:10:16.339Z,10.96
2023-05-08T06:12:44.780Z,11.03
2023-05-08T06:15:16.681Z,11.14
2023-05-08T06:17:45.249Z,11.24
2023-05-08T06:20:17.814Z,11.35
2023-05-08T06:22:46.228Z,11.45
2023-05-08T06:25:17.216Z,11.55
2023-05-08T06:27:46.850Z,11.65
2023-05-08T06:30:16.861Z,11.75
2023-05-08T06:32:45.090Z,11.86
2023-05-08T06:35:18.669Z,11.91
2023-05-08T06:37:48.416Z,11.90
2023-05-08T06:40:19.898Z,11.96
2023-05-08T06:42:48.493Z,12.11
2023-05-08T06:45:17.516Z,12.20
2023-05-08T06:47:46.196Z,12.30
2023-05-08T06:50:16.740Z,12.42
2023-05-08T06:52:47.407Z,12.53
2023-05-08T06:55:18.760Z,12.63
2023-05-08T06:57:47.425Z,12.76
2023-05-08T07:00:18.976Z,12.81
2023-05-08T07:02:47.476Z,12.82
2023-05-08T07:05:20.678Z,12.94
2023-05-08T07:07:49.602Z,13.04
2023-05-08T07:10:20.218Z,13.20
2023-05-08T07:12:48.802Z,13.30
2023-05-08T07:15:26.167Z,13.24
2023-05-08T07:17:58.502Z,13.34
2023-05-08T07:20:30.040Z,13.46
2023-05-08T07:22:58.665Z,13.65
2023-05-08T07:25:27.482Z,13.72
2023-05-08T07:27:56.353Z,13.89
2023-05-08T07:30:25.470Z,13.98
2023-05-08T07:32:55.445Z,14.05
2023-05-08T07:35:24.390Z,14.05
2023-05-08T07:37:54.606Z,14.10
2023-05-08T07:40:23.350Z,14.23
2023-05-08T07:42:51.905Z,14.21
2023-05-08T07:45:20.528Z,14.32
2023-05-08T07:47:53.431Z,14.34
2023-05-08T07:50:23.156Z,14.37
2023-05-08T07:52:52.744Z,14.43
2023-05-08T07:55:23.051Z,14.52
2023-05-08T07:57:51.583Z,14.58
2023-05-08T08:00:20.815Z,14.73
2023-05-08T08:02:49.403Z,14.85
2023-05-08T08:05:21.531Z,14.99
2023-05-08T08:07:50.068Z,15.09
2023-05-08T08:10:21.934Z,15.19
2023-05-08T08:12:50.624Z,15.31
2023-05-08T08:15:19.417Z,15.40
2023-05-08T08:17:47.956Z,15.43
2023-05-08T08:20:18.945Z,15.55
2023-05-08T08:22:47.474Z,15.63
2023-05-08T08:25:18.065Z,15.75
2023-05-08T08:27:48.124Z,15.85
2023-05-08T08:30:17.954Z,15.94
2023-05-08T08:33:10.487Z,15.89
2023-05-08T08:35:37.022Z,15.92
2023-05-08T08:38:05.747Z,15.94
2023-05-08T08:40:35.160Z,16.04
2023-05-08T08:43:07.784Z,16.13
2023-05-08T08:45:37.646Z,16.20
2023-05-08T08:48:07.461Z,16.21
2023-05-08T08:50:38.059Z,16.23
2023-05-08T08:53:12.306Z,16.20
2023-05-08T08:55:45.410Z,16.26
2023-05-08T08:58:23.370Z,16.33
2023-05-08T09:00:55.029Z,16.43
2023-05-08T09:03:23.994Z,16.48
2023-05-08T09:05:55.583Z,16.46
2023-05-08T09:08:24.069Z,16.47
2023-05-08T09:10:54.474Z,16.51
2023-05-08T09:13:24.771Z,16.66
2023-05-08T09:15:54.524Z,16.84
2023-05-08T09:18:23.107Z,16.92
2023-05-08T09:20:52.549Z,16.98
2023-05-08T09:23:21.090Z,17.00
2023-05-08T09:25:51.356Z,17.02
2023-05-08T09:28:21.312Z,16.97
2023-05-08T09:30:56.480Z,16.99
2023-05-08T09:33:26.576Z,17.07
2023-05-08T09:36:26.852Z,17.17
2023-05-08T09:38:55.596Z,17.19
2023-05-08T09:41:24.633Z,17.21
2023-05-08T09:44:03.622Z,17.24
2023-05-08T09:46:35.440Z,17.41
2023-05-08T09:49:05.218Z,17.52
2023-05-08T09:51:34.339Z,17.60
2023-05-08T09:54:06.103Z,17.74
2023-05-08T09:56:36.400Z,17.92
2023-05-08T09:59:24.137Z,18.02
2023-05-08T10:01:56.706Z,18.20
2023-05-08T10:04:37.415Z,18.34
2023-05-08T10:07:11.315Z,18.45
2023-05-08T10:09:50.249Z,18.52
2023-05-08T10:12:19.215Z,18.68
2023-05-08T10:14:47.744Z,18.63
2023-05-08T10:18:10.732Z,18.69
2023-05-08T10:28:19.810Z,18.83
2023-05-08T10:30:50.854Z,18.83
2023-05-08T10:33:22.936Z,18.85
2023-05-08T10:35:51.861Z,18.70
2023-05-08T10:38:21.637Z,18.71
2023-05-08T10:40:58.039Z,18.73
2023-05-08T10:43:29.926Z,18.88
2023-05-08T10:45:59.875Z,19.00
2023-05-08T10:48:38.369Z,19.09
2023-05-08T10:51:16.359Z,19.09
2023-05-08T10:53:54.323Z,19.19
2023-05-08T10:56:28.515Z,19.37
2023-05-08T10:59:01.825Z,19.47
2023-05-08T11:01:30.680Z,19.49
2023-05-08T11:03:59.351Z,19.58
2023-05-08T11:06:54.856Z,19.67
2023-05-08T11:09:48.852Z,19.66
2023-05-08T11:12:28.330Z,19.78
2023-05-08T11:15:03.281Z,19.80
2023-05-08T11:17:31.982Z,19.82
2023-05-08T11:20:01.670Z,19.81
2023-05-08T11:22:33.281Z,19.84
2023-05-08T11:25:05.285Z,19.86
2023-05-08T11:28:05.981Z,19.98
2023-05-08T11:30:40.115Z,20.08
2023-05-08T11:33:18.794Z,20.13
2023-05-08T11:35:52.923Z,20.18
2023-05-08T11:38:26.642Z,20.16
2023-05-08T11:41:04.671Z,20.11
2023-05-08T11:44:08.048Z,20.12
2023-05-08T11:46:46.360Z,20.17
2023-05-08T11:49:29.489Z,20.14
2023-05-08T11:52:00.765Z,20.15
2023-05-08T11:54:31.998Z,20.22
2023-05-08T11:57:02.017Z,20.25
2023-05-08T11:59:30.482Z,20.29
2023-05-08T12:02:08.454Z,20.37
2023-05-08T12:04:47.896Z,20.47
2023-05-08T12:07:17.809Z,20.52
2023-05-08T12:09:50.434Z,20.54
2023-05-08T12:12:42.819Z,20.54
2023-05-08T12:15:13.037Z,20.54
2023-05-08T12:17:42.988Z,20.50
2023-05-08T12:20:16.204Z,20.55
2023-05-08T12:22:52.567Z,20.53
2023-05-08T12:25:21.908Z,20.61
2023-05-08T12:27:50.425Z,20.68
2023-05-08T12:30:21.214Z,20.68
2023-05-08T12:32:53.427Z,20.58
2023-05-08T12:35:23.021Z,20.50
2023-05-08T12:37:52.989Z,20.51
2023-05-08T12:40:30.277Z,20.58
2023-05-08T12:43:03.924Z,20.56
2023-05-08T12:45:35.882Z,20.63
2023-05-08T12:48:08.440Z,20.74
2023-05-08T12:50:38.028Z,20.77
2023-05-08T12:53:09.674Z,20.87
2023-05-08T12:55:39.558Z,20.92
2023-05-08T12:58:17.416Z,20.91
2023-05-08T13:00:47.273Z,20.92
2023-05-08T13:03:25.811Z,20.92
2023-05-08T13:05:56.096Z,20.94
2023-05-08T13:08:31.474Z,20.95
2023-05-08T13:10:59.963Z,20.96
2023-05-08T13:13:31.802Z,20.99
2023-05-08T13:16:08.670Z,21.07
2023-05-08T13:18:40.140Z,21.09
2023-05-08T13:21:08.820Z,21.08
2023-05-08T13:23:37.172Z,21.13
2023-05-08T13:26:05.767Z,21.16
2023-05-08T13:28:35.550Z,21.16
2023-05-08T13:31:08.163Z,21.23
2023-05-08T13:33:40.675Z,21.29
2023-05-08T13:36:09.732Z,21.34
2023-05-08T13:38:47.209Z,21.33
2023-05-08T13:41:15.911Z,21.38
2023-05-08T13:43:45.766Z,21.46
2023-05-08T13:46:14.422Z,21.40
2023-05-08T13:48:44.651Z,21.41
2023-05-08T13:51:13.014Z,21.28
2023-05-08T13:53:41.440Z,21.27
2023-05-08T13:56:20.720Z,21.24
2023-05-08T13:58:49.202Z,21.33
2023-05-08T14:01:26.435Z,21.36
2023-05-08T14:03:57.303Z,21.38
2023-05-08T14:06:25.986Z,21.37
2023-05-08T14:08:57.086Z,21.39
2023-05-08T14:11:27.756Z,21.28
2023-05-08T14:13:56.528Z,21.27
2023-05-08T14:16:27.460Z,21.23
2023-05-08T14:18:58.001Z,21.18
2023-05-08T14:21:27.676Z,21.13
2023-05-08T14:23:56.193Z,21.10
2023-05-08T14:26:25.058Z,21.14
2023-05-08T14:28:53.466Z,21.11
2023-05-08T14:31:26.390Z,21.12
2023-05-08T14:33:54.955Z,21.15
2023-05-08T14:36:28.908Z,21.20
2023-05-08T14:38:57.343Z,21.14
2023-05-08T14:41:29.910Z,21.03
2023-05-08T14:43:59.115Z,20.98
2023-05-08T14:46:34.088Z,20.91
2023-05-08T14:49:05.492Z,20.94
2023-05-08T14:51:35.308Z,20.96
2023-05-08T14:54:08.188Z,20.90
2023-05-08T14:56:46.411Z,20.93
2023-05-08T14:59:28.736Z,20.92
2023-05-08T15:01:57.316Z,20.88
2023-05-08T15:04:25.768Z,20.90
2023-05-08T15:06:55.603Z,20.93
2023-05-08T15:09:24.170Z,20.90
2023-05-08T15:11:52.507Z,20.89
2023-05-08T15:14:20.896Z,20.94
2023-05-08T15:16:49.377Z,20.99
2023-05-08T15:19:24.552Z,20.97
2023-05-08T15:21:54.786Z,20.97
2023-05-08T15:24:23.168Z,21.14
2023-05-08T15:26:51.662Z,21.44
2023-05-08T15:29:23.548Z,22.16
2023-05-08T15:31:54.621Z,23.54
2023-05-08T15:34:24.568Z,24.95
2023-05-08T15:36:56.814Z,26.13
2023-05-08T15:39:28.920Z,27.02
2023-05-08T15:41:57.741Z,27.50
2023-05-08T15:44:42.125Z,28.19
2023-05-08T15:47:15.849Z,28.55
2023-05-08T15:49:50.455Z,28.41
2023-05-08T15:52:20.417Z,28.66
2023-05-08T15:54:49.199Z,29.02
2023-05-08T15:57:17.878Z,28.98
2023-05-08T15:59:46.967Z,28.93
2023-05-08T16:02:15.248Z,28.82
2023-05-08T16:04:43.662Z,28.69
2023-05-08T16:07:12.105Z,28.73
2023-05-08T16:09:42.172Z,28.97
2023-05-08T16:12:20.242Z,29.43
2023-05-08T16:14:48.512Z,29.32
2023-05-08T16:17:23.339Z,29.13
2023-05-08T16:19:51.777Z,29.12
2023-05-08T16:22:19.999Z,28.81
2023-05-08T16:24:49.707Z,28.53
2023-05-08T16:27:18.616Z,28.50
2023-05-08T16:29:46.832Z,28.65
2023-05-08T16:32:16.385Z,28.95
2023-05-08T16:34:44.854Z,28.99
2023-05-08T16:37:14.237Z,29.19
2023-05-08T16:39:42.535Z,29.18
2023-05-08T16:42:13.084Z,29.37
2023-05-08T16:44:41.314Z,29.24
2023-05-08T16:47:09.611Z,28.99
2023-05-08T16:49:38.694Z,28.86
2023-05-08T16:52:07.273Z,28.92
2023-05-08T16:54:35.694Z,28.85
2023-05-08T16:57:04.129Z,28.96
2023-05-08T16:59:33.788Z,28.77
2023-05-08T17:02:02.154Z,28.58
2023-05-08T17:04:30.937Z,28.47
2023-05-08T17:07:05.170Z,28.34
2023-05-08T17:09:34.469Z,27.97
2023-05-08T17:12:03.676Z,27.98
2023-05-08T17:14:33.543Z,28.11
2023-05-08T17:17:01.864Z,28.13
2023-05-08T17:19:30.088Z,28.08
2023-05-08T17:21:59.729Z,27.86
2023-05-08T17:24:28.438Z,27.79
2023-05-08T17:26:56.625Z,27.73
2023-05-08T17:29:24.800Z,27.86
2023-05-08T17:31:58.329Z,27.85
2023-05-08T17:34:26.769Z,27.70
2023-05-08T17:36:55.346Z,27.62
2023-05-08T17:39:23.581Z,27.73
2023-05-08T17:41:52.660Z,27.76
2023-05-08T17:44:21.255Z,27.59
2023-05-08T17:46:52.061Z,27.55
2023-05-08T17:49:21.680Z,27.44
2023-05-08T17:51:50.107Z,27.32
2023-05-08T17:54:18.493Z,26.97
2023-05-08T17:56:46.870Z,26.32
2023-05-08T17:59:15.034Z,25.58
2023-05-08T18:01:43.453Z,24.90
2023-05-08T18:04:11.894Z,24.22
2023-05-08T18:06:49.748Z,23.65
2023-05-08T18:09:18.438Z,23.05
2023-05-08T18:11:46.666Z,22.56
2023-05-08T18:14:14.938Z,22.00
2023-05-08T18:16:43.412Z,21.52
2023-05-08T18:19:11.939Z,21.06
2023-05-08T18:21:42.078Z,20.70
2023-05-08T18:24:11.236Z,20.35
2023-05-08T18:26:39.433Z,20.04
2023-05-08T18:29:08.077Z,19.60
2023-05-08T18:31:36.274Z,19.25
2023-05-08T18:34:04.488Z,18.90
2023-05-08T18:36:33.081Z,18.63
2023-05-08T18:39:03.961Z,18.38
2023-05-08T18:41:32.478Z,18.19
2023-05-08T18:44:03.236Z,17.91
2023-05-08T18:46:31.695Z,17.68
2023-05-08T18:49:00.608Z,17.51
2023-05-08T18:51:31.208Z,17.31
2023-05-08T18:54:00.219Z,17.12
2023-05-08T18:56:30.062Z,16.97
2023-05-08T18:59:00.182Z,16.83
2023-05-08T19:01:28.449Z,16.68
2023-05-08T19:03:56.737Z,16.55
2023-05-08T19:06:27.918Z,16.39
2023-05-08T19:08:56.211Z,16.23
2023-05-08T19:11:27.839Z,16.07
2023-05-08T19:13:58.010Z,15.92
2023-05-08T19:16:26.401Z,15.78
2023-05-08T19:18:54.866Z,15.67
2023-05-08T19:21:23.638Z,15.56
2023-05-08T19:23:52.006Z,15.46
2023-05-08T19:26:20.297Z,15.37
2023-05-08T19:28:53.765Z,15.28
2023-05-08T19:31:23.891Z,15.17
2023-05-08T19:33:57.457Z,15.09
2023-05-08T19:36:26.046Z,15.01
2023-05-08T19:38:54.300Z,14.92
2023-05-08T19:41:27.023Z,14.82
2023-05-08T19:43:56.744Z,14.75
2023-05-08T19:46:26.508Z,14.66
2023-05-08T19:48:54.845Z,14.54
2023-05-08T19:51:23.480Z,14.41
2023-05-08T19:53:51.770Z,14.31
2023-05-08T19:56:21.211Z,14.25
2023-05-08T19:58:49.433Z,14.17
2023-05-08T20:01:17.669Z,14.06
2023-05-08T20:03:47.479Z,13.97
2023-05-08T20:06:16.130Z,13.89
2023-05-08T20:08:44.490Z,13.83
2023-05-08T20:11:12.859Z,13.71
2023-05-08T20:13:41.284Z,13.62
2023-05-08T20:16:10.353Z,13.51
2023-05-08T20:18:41.176Z,13.40
2023-05-08T20:21:10.839Z,13.29
2023-05-08T20:23:39.706Z,13.22
2023-05-08T20:26:08.795Z,13.21
2023-05-08T20:28:37.720Z,13.15
2023-05-08T20:31:06.316Z,13.10
2023-05-08T20:33:34.696Z,13.05
2023-05-08T20:36:03.478Z,12.95
2023-05-08T20:38:33.864Z,12.92
2023-05-08T20:41:02.543Z,12.84
2023-05-08T20:43:30.982Z,12.75
2023-05-08T20:46:01.802Z,12.66
2023-05-08T20:48:30.080Z,12.62
2023-05-08T20:50:58.212Z,12.59
2023-05-08T20:53:26.547Z,12.52
2023-05-08T20:56:02.898Z,12.47
2023-05-08T20:58:31.593Z,12.43
2023-05-08T21:01:00.209Z,12.40
2023-05-08T21:03:28.452Z,12.37
2023-05-08T21:05:56.721Z,12.32
2023-05-08T21:08:27.688Z,12.26
2023-05-08T21:10:55.954Z,12.22
2023-05-08T21:13:26.935Z,12.21
2023-05-08T21:15:55.169Z,12.16
2023-05-08T21:18:23.505Z,12.11
2023-05-08T21:20:52.148Z,12.07
2023-05-08T21:23:23.961Z,12.00
2023-05-08T21:25:53.159Z,12.01
2023-05-08T21:28:21.478Z,11.96
2023-05-08T21:30:51.084Z,11.93
2023-05-08T21:33:19.377Z,11.89
2023-05-08T21:35:48.516Z,11.86
2023-05-08T21:38:17.161Z,11.86
2023-05-08T21:40:45.376Z,11.81
2023-05-08T21:43:14.924Z,11.77
2023-05-08T21:45:43.158Z,11.74
2023-05-08T21:48:13.185Z,11.69
2023-05-08T21:50:41.607Z,11.64
2023-05-08T21:53:09.855Z,11.60
2023-05-08T21:55:38.111Z,11.58
2023-05-08T21:58:06.482Z,11.55
2023-05-08T22:00:34.962Z,11.50
2023-05-08T22:03:03.304Z,11.48
2023-05-08T22:05:33.110Z,11.41
2023-05-08T22:08:01.390Z,11.39
2023-05-08T22:10:30.172Z,11.40
2023-05-08T22:12:58.393Z,11.38
2023-05-08T22:15:30.185Z,11.34
2023-05-08T22:17:59.483Z,11.31
2023-05-08T22:20:27.848Z,11.25
2023-05-08T22:22:57.606Z,11.19
2023-05-08T22:25:27.102Z,11.14
2023-05-08T22:27:55.844Z,11.08
2023-05-08T22:30:24.131Z,11.06
2023-05-08T22:32:56.383Z,11.03
2023-05-08T22:35:25.830Z,11.01
2023-05-08T22:37:55.214Z,10.97
2023-05-08T22:40:25.690Z,10.91
2023-05-08T22:42:55.964Z,10.92
2023-05-08T22:45:24.769Z,10.90
2023-05-08T22:47:53.362Z,10.90
2023-05-08T22:50:27.877Z,10.83
2023-05-08T22:52:56.240Z,10.83
2023-05-08T22:55:25.975Z,10.80
2023-05-08T22:57:54.391Z,10.85
2023-05-08T23:00:23.438Z,10.82
2023-05-08T23:02:51.704Z,10.78
2023-05-08T23:05:27.458Z,10.81
2023-05-08T23:07:56.248Z,10.84
2023-05-08T23:10:26.573Z,10.83
2023-05-08T23:12:55.201Z,10.81
2023-05-08T23:15:24.202Z,10.84
2023-05-08T23:17:52.870Z,10.85
2023-05-08T23:20:21.943Z,10.84
2023-05-08T23:22:51.964Z,10.81
2023-05-08T23:25:20.451Z,10.83
2023-05-08T23:27:50.153Z,10.84
2023-05-08T23:30:18.494Z,10.85
2023-05-08T23:32:47.133Z,10.84
2023-05-08T23:35:15.733Z,10.82
2023-05-08T23:37:44.649Z,10.86
2023-05-08T23:40:14.883Z,10.88
2023-05-08T23:42:43.346Z,10.89
2023-05-08T23:45:13.748Z,10.89
2023-05-08T23:47:42.270Z,10.88
2023-05-08T23:50:11.828Z,10.93
2023-05-08T23:52:55.401Z,10.94
2023-05-08T23:55:23.611Z,10.96
2023-05-08T23:57:51.982Z,10.97
